sensor_id;sensor_type;location;lat;lon;timestamp;P1;durP1;ratioP1;P2;durP2;ratioP2
8413;SDS011;4244;48.684;9.028;2022-10-31T00:00:06;7.67;;;6.30;;
8413;SDS011;4244;48.684;9.028;2022-10-31T00:02:33;8.10;;;5.93;;
8413;SDS011;4244;48.684;9.028;2022-10-31T00:04:59;6.70;;;6.00;;
8413;SDS011;4244;48.684;9.028;2022-10-31T00:07:24;8.27;;;6.37;;
8413;SDS011;4244;48.684;9.028;2022-10-31T00:09:50;7.47;;;6.23;;
8413;SDS011;4244;48.684;9.028;2022-10-31T00:12:15;7.77;;;6.10;;
8413;SDS011;4244;48.684;9.028;2022-10-31T00:14:41;6.50;;;5.90;;
8413;SDS011;4244;48.684;9.028;2022-10-31T00:17:06;8.00;;;5.70;;
8413;SDS011;4244;48.684;9.028;2022-10-31T00:19:32;7.80;;;6.47;;
8413;SDS011;4244;48.684;9.028;2022-10-31T00:21:58;6.90;;;5.80;;
8413;SDS011;4244;48.684;9.028;2022-10-31T00:24:24;6.40;;;5.20;;
8413;SDS011;4244;48.684;9.028;2022-10-31T00:26:50;5.03;;;4.43;;
8413;SDS011;4244;48.684;9.028;2022-10-31T00:29:16;8.23;;;5.27;;
8413;SDS011;4244;48.684;9.028;2022-10-31T00:31:41;6.93;;;5.70;;
8413;SDS011;4244;48.684;9.028;2022-10-31T00:34:07;7.93;;;6.20;;
8413;SDS011;4244;48.684;9.028;2022-10-31T00:36:32;6.43;;;5.83;;
8413;SDS011;4244;48.684;9.028;2022-10-31T00:38:58;8.70;;;5.40;;
8413;SDS011;4244;48.684;9.028;2022-10-31T00:41:24;6.37;;;5.40;;
8413;SDS011;4244;48.684;9.028;2022-10-31T00:43:49;6.50;;;5.70;;
8413;SDS011;4244;48.684;9.028;2022-10-31T00:46:15;6.40;;;5.20;;
8413;SDS011;4244;48.684;9.028;2022-10-31T00:48:41;7.07;;;5.33;;
8413;SDS011;4244;48.684;9.028;2022-10-31T00:51:07;6.50;;;5.30;;
8413;SDS011;4244;48.684;9.028;2022-10-31T00:53:33;8.17;;;5.53;;
8413;SDS011;4244;48.684;9.028;2022-10-31T00:55:58;6.13;;;4.80;;
8413;SDS011;4244;48.684;9.028;2022-10-31T00:58:24;8.10;;;5.30;;
8413;SDS011;4244;48.684;9.028;2022-10-31T01:00:51;6.40;;;5.50;;
8413;SDS011;4244;48.684;9.028;2022-10-31T01:03:20;7.63;;;5.87;;
8413;SDS011;4244;48.684;9.028;2022-10-31T01:05:56;6.03;;;5.37;;
8413;SDS011;4244;48.684;9.028;2022-10-31T01:08:22;7.10;;;5.97;;
8413;SDS011;4244;48.684;9.028;2022-10-31T01:10:57;7.83;;;4.90;;
8413;SDS011;4244;48.684;9.028;2022-10-31T01:13:24;7.57;;;5.70;;
8413;SDS011;4244;48.684;9.028;2022-10-31T01:15:53;5.33;;;4.83;;
8413;SDS011;4244;48.684;9.028;2022-10-31T01:18:20;5.97;;;5.10;;
8413;SDS011;4244;48.684;9.028;2022-10-31T01:20:46;7.73;;;5.10;;
8413;SDS011;4244;48.684;9.028;2022-10-31T01:23:11;5.47;;;4.63;;
8413;SDS011;4244;48.684;9.028;2022-10-31T01:25:37;5.07;;;4.57;;
8413;SDS011;4244;48.684;9.028;2022-10-31T01:28:02;8.30;;;5.60;;
8413;SDS011;4244;48.684;9.028;2022-10-31T01:30:28;5.70;;;4.60;;
8413;SDS011;4244;48.684;9.028;2022-10-31T01:32:54;7.50;;;5.20;;
8413;SDS011;4244;48.684;9.028;2022-10-31T01:35:19;8.67;;;5.17;;
8413;SDS011;4244;48.684;9.028;2022-10-31T01:37:45;7.27;;;5.27;;
8413;SDS011;4244;48.684;9.028;2022-10-31T01:40:10;13.10;;;5.70;;
8413;SDS011;4244;48.684;9.028;2022-10-31T01:42:36;8.00;;;4.63;;
8413;SDS011;4244;48.684;9.028;2022-10-31T01:45:02;8.40;;;5.30;;
8413;SDS011;4244;48.684;9.028;2022-10-31T01:47:40;5.33;;;4.73;;
8413;SDS011;4244;48.684;9.028;2022-10-31T01:50:13;6.83;;;4.80;;
8413;SDS011;4244;48.684;9.028;2022-10-31T01:52:47;8.00;;;4.87;;
8413;SDS011;4244;48.684;9.028;2022-10-31T01:55:20;6.20;;;4.50;;
8413;SDS011;4244;48.684;9.028;2022-10-31T01:57:50;6.90;;;5.07;;
8413;SDS011;4244;48.684;9.028;2022-10-31T02:00:19;7.90;;;5.27;;
8413;SDS011;4244;48.684;9.028;2022-10-31T02:02:45;5.97;;;4.90;;
8413;SDS011;4244;48.684;9.028;2022-10-31T02:05:16;7.20;;;4.90;;
8413;SDS011;4244;48.684;9.028;2022-10-31T02:08:06;6.07;;;5.10;;
8413;SDS011;4244;48.684;9.028;2022-10-31T02:10:32;8.90;;;5.03;;
8413;SDS011;4244;48.684;9.028;2022-10-31T02:12:59;7.73;;;5.53;;
8413;SDS011;4244;48.684;9.028;2022-10-31T02:15:27;5.40;;;4.90;;
8413;SDS011;4244;48.684;9.028;2022-10-31T02:17:54;4.50;;;4.10;;
8413;SDS011;4244;48.684;9.028;2022-10-31T02:20:20;6.37;;;5.47;;
8413;SDS011;4244;48.684;9.028;2022-10-31T02:25:56;7.80;;;5.87;;
8413;SDS011;4244;48.684;9.028;2022-10-31T02:34:01;6.97;;;5.57;;
8413;SDS011;4244;48.684;9.028;2022-10-31T02:44:39;5.23;;;4.17;;
8413;SDS011;4244;48.684;9.028;2022-10-31T02:47:16;6.30;;;4.50;;
8413;SDS011;4244;48.684;9.028;2022-10-31T02:49:48;7.67;;;4.93;;
8413;SDS011;4244;48.684;9.028;2022-10-31T02:54:46;7.13;;;4.90;;
8413;SDS011;4244;48.684;9.028;2022-10-31T02:57:12;7.50;;;4.70;;
8413;SDS011;4244;48.684;9.028;2022-10-31T02:59:39;6.87;;;6.17;;
8413;SDS011;4244;48.684;9.028;2022-10-31T03:10:47;5.63;;;4.57;;
8413;SDS011;4244;48.684;9.028;2022-10-31T03:16:07;6.03;;;4.87;;
8413;SDS011;4244;48.684;9.028;2022-10-31T03:19:10;6.20;;;4.30;;
8413;SDS011;4244;48.684;9.028;2022-10-31T03:21:57;5.23;;;4.60;;
8413;SDS011;4244;48.684;9.028;2022-10-31T03:24:30;7.87;;;5.13;;
8413;SDS011;4244;48.684;9.028;2022-10-31T03:26:58;6.50;;;4.50;;
8413;SDS011;4244;48.684;9.028;2022-10-31T03:29:26;5.90;;;4.80;;
8413;SDS011;4244;48.684;9.028;2022-10-31T03:31:57;6.33;;;5.73;;
8413;SDS011;4244;48.684;9.028;2022-10-31T03:34:25;5.67;;;4.60;;
8413;SDS011;4244;48.684;9.028;2022-10-31T03:36:52;5.20;;;4.67;;
8413;SDS011;4244;48.684;9.028;2022-10-31T03:39:19;6.70;;;5.33;;
8413;SDS011;4244;48.684;9.028;2022-10-31T03:41:52;5.70;;;5.10;;
8413;SDS011;4244;48.684;9.028;2022-10-31T03:44:20;5.47;;;4.27;;
8413;SDS011;4244;48.684;9.028;2022-10-31T03:46:46;5.47;;;4.17;;
8413;SDS011;4244;48.684;9.028;2022-10-31T03:49:12;5.27;;;4.77;;
8413;SDS011;4244;48.684;9.028;2022-10-31T03:51:40;6.37;;;4.53;;
8413;SDS011;4244;48.684;9.028;2022-10-31T03:54:08;8.70;;;5.53;;
8413;SDS011;4244;48.684;9.028;2022-10-31T03:59:24;5.70;;;5.17;;
8413;SDS011;4244;48.684;9.028;2022-10-31T04:01:53;6.37;;;4.50;;
8413;SDS011;4244;48.684;9.028;2022-10-31T04:04:22;5.00;;;4.33;;
8413;SDS011;4244;48.684;9.028;2022-10-31T04:06:48;5.97;;;4.63;;
8413;SDS011;4244;48.684;9.028;2022-10-31T04:09:14;6.87;;;5.10;;
8413;SDS011;4244;48.684;9.028;2022-10-31T04:11:40;5.20;;;4.07;;
8413;SDS011;4244;48.684;9.028;2022-10-31T04:14:09;6.13;;;4.97;;
8413;SDS011;4244;48.684;9.028;2022-10-31T04:16:37;6.00;;;5.00;;
8413;SDS011;4244;48.684;9.028;2022-10-31T04:19:06;5.90;;;4.93;;
8413;SDS011;4244;48.684;9.028;2022-10-31T04:21:32;5.60;;;5.10;;
8413;SDS011;4244;48.684;9.028;2022-10-31T04:23:57;6.63;;;4.90;;
8413;SDS011;4244;48.684;9.028;2022-10-31T04:26:23;7.00;;;5.60;;
8413;SDS011;4244;48.684;9.028;2022-10-31T04:28:49;6.80;;;4.87;;
8413;SDS011;4244;48.684;9.028;2022-10-31T04:31:14;7.93;;;5.17;;
8413;SDS011;4244;48.684;9.028;2022-10-31T04:33:40;4.83;;;4.33;;
8413;SDS011;4244;48.684;9.028;2022-10-31T04:36:06;5.77;;;4.70;;
8413;SDS011;4244;48.684;9.028;2022-10-31T04:38:32;6.57;;;3.97;;
8413;SDS011;4244;48.684;9.028;2022-10-31T04:40:58;5.90;;;5.20;;
8413;SDS011;4244;48.684;9.028;2022-10-31T04:43:23;5.67;;;5.10;;
8413;SDS011;4244;48.684;9.028;2022-10-31T04:45:49;7.30;;;4.67;;
8413;SDS011;4244;48.684;9.028;2022-10-31T04:48:15;5.60;;;4.80;;
8413;SDS011;4244;48.684;9.028;2022-10-31T04:50:40;5.60;;;4.70;;
8413;SDS011;4244;48.684;9.028;2022-10-31T04:53:06;5.37;;;4.70;;
8413;SDS011;4244;48.684;9.028;2022-10-31T04:55:32;6.93;;;4.27;;
8413;SDS011;4244;48.684;9.028;2022-10-31T04:57:58;6.97;;;4.97;;
8413;SDS011;4244;48.684;9.028;2022-10-31T05:00:23;4.80;;;4.30;;
8413;SDS011;4244;48.684;9.028;2022-10-31T05:02:53;6.53;;;5.17;;
8413;SDS011;4244;48.684;9.028;2022-10-31T05:05:21;5.60;;;5.10;;
8413;SDS011;4244;48.684;9.028;2022-10-31T05:07:48;7.40;;;5.07;;
8413;SDS011;4244;48.684;9.028;2022-10-31T05:10:16;6.87;;;5.03;;
8413;SDS011;4244;48.684;9.028;2022-10-31T05:12:46;5.20;;;4.43;;
8413;SDS011;4244;48.684;9.028;2022-10-31T05:15:17;6.13;;;5.57;;
8413;SDS011;4244;48.684;9.028;2022-10-31T05:17:43;5.70;;;4.80;;
8413;SDS011;4244;48.684;9.028;2022-10-31T05:20:10;5.30;;;4.80;;
8413;SDS011;4244;48.684;9.028;2022-10-31T05:22:36;6.17;;;4.53;;
8413;SDS011;4244;48.684;9.028;2022-10-31T05:25:02;6.80;;;4.33;;
8413;SDS011;4244;48.684;9.028;2022-10-31T05:27:28;5.43;;;4.90;;
8413;SDS011;4244;48.684;9.028;2022-10-31T05:29:53;5.20;;;4.47;;
8413;SDS011;4244;48.684;9.028;2022-10-31T05:32:19;5.57;;;4.50;;
8413;SDS011;4244;48.684;9.028;2022-10-31T05:34:44;7.23;;;5.13;;
8413;SDS011;4244;48.684;9.028;2022-10-31T05:37:10;6.13;;;4.50;;
8413;SDS011;4244;48.684;9.028;2022-10-31T05:39:35;5.20;;;4.70;;
8413;SDS011;4244;48.684;9.028;2022-10-31T05:42:01;7.77;;;5.50;;
8413;SDS011;4244;48.684;9.028;2022-10-31T05:44:27;5.70;;;5.10;;
8413;SDS011;4244;48.684;9.028;2022-10-31T05:46:53;5.40;;;4.90;;
8413;SDS011;4244;48.684;9.028;2022-10-31T05:49:18;5.80;;;5.20;;
8413;SDS011;4244;48.684;9.028;2022-10-31T05:51:44;7.57;;;5.53;;
8413;SDS011;4244;48.684;9.028;2022-10-31T05:54:10;6.90;;;4.60;;
8413;SDS011;4244;48.684;9.028;2022-10-31T05:56:35;5.13;;;4.50;;
8413;SDS011;4244;48.684;9.028;2022-10-31T05:59:01;5.70;;;5.20;;
8413;SDS011;4244;48.684;9.028;2022-10-31T06:01:26;9.87;;;5.53;;
8413;SDS011;4244;48.684;9.028;2022-10-31T06:03:52;5.70;;;5.00;;
8413;SDS011;4244;48.684;9.028;2022-10-31T06:06:18;7.80;;;5.30;;
8413;SDS011;4244;48.684;9.028;2022-10-31T06:08:43;6.40;;;5.23;;
8413;SDS011;4244;48.684;9.028;2022-10-31T06:11:09;6.53;;;4.80;;
8413;SDS011;4244;48.684;9.028;2022-10-31T06:13:34;5.30;;;4.70;;
8413;SDS011;4244;48.684;9.028;2022-10-31T06:16:00;7.83;;;5.20;;
8413;SDS011;4244;48.684;9.028;2022-10-31T06:18:26;5.50;;;4.70;;
8413;SDS011;4244;48.684;9.028;2022-10-31T06:20:51;7.40;;;5.10;;
8413;SDS011;4244;48.684;9.028;2022-10-31T06:23:17;5.63;;;4.93;;
8413;SDS011;4244;48.684;9.028;2022-10-31T06:25:42;6.97;;;5.37;;
8413;SDS011;4244;48.684;9.028;2022-10-31T06:28:08;5.60;;;4.97;;
8413;SDS011;4244;48.684;9.028;2022-10-31T06:30:35;9.17;;;5.17;;
8413;SDS011;4244;48.684;9.028;2022-10-31T06:33:01;7.03;;;5.37;;
8413;SDS011;4244;48.684;9.028;2022-10-31T06:35:28;5.43;;;4.90;;
8413;SDS011;4244;48.684;9.028;2022-10-31T06:37:54;5.73;;;4.80;;
8413;SDS011;4244;48.684;9.028;2022-10-31T06:40:19;7.97;;;5.20;;
8413;SDS011;4244;48.684;9.028;2022-10-31T06:42:45;6.47;;;5.80;;
8413;SDS011;4244;48.684;9.028;2022-10-31T06:45:11;6.50;;;5.13;;
8413;SDS011;4244;48.684;9.028;2022-10-31T06:47:36;7.07;;;5.23;;
8413;SDS011;4244;48.684;9.028;2022-10-31T06:50:02;6.13;;;5.37;;
8413;SDS011;4244;48.684;9.028;2022-10-31T06:52:28;6.10;;;5.50;;
8413;SDS011;4244;48.684;9.028;2022-10-31T06:54:54;6.70;;;4.97;;
8413;SDS011;4244;48.684;9.028;2022-10-31T06:57:19;6.57;;;5.33;;
8413;SDS011;4244;48.684;9.028;2022-10-31T06:59:45;5.63;;;4.77;;
8413;SDS011;4244;48.684;9.028;2022-10-31T07:02:10;7.13;;;5.80;;
8413;SDS011;4244;48.684;9.028;2022-10-31T07:04:36;5.27;;;4.67;;
8413;SDS011;4244;48.684;9.028;2022-10-31T07:07:02;5.20;;;4.70;;
8413;SDS011;4244;48.684;9.028;2022-10-31T07:09:28;7.23;;;5.40;;
8413;SDS011;4244;48.684;9.028;2022-10-31T07:11:54;6.20;;;5.60;;
8413;SDS011;4244;48.684;9.028;2022-10-31T07:14:19;7.33;;;5.67;;
8413;SDS011;4244;48.684;9.028;2022-10-31T07:16:49;5.67;;;5.10;;
8413;SDS011;4244;48.684;9.028;2022-10-31T07:19:15;6.80;;;5.87;;
8413;SDS011;4244;48.684;9.028;2022-10-31T07:21:41;6.67;;;5.97;;
8413;SDS011;4244;48.684;9.028;2022-10-31T07:24:06;6.27;;;5.37;;
8413;SDS011;4244;48.684;9.028;2022-10-31T07:26:32;7.50;;;6.40;;
8413;SDS011;4244;48.684;9.028;2022-10-31T07:28:58;6.07;;;5.47;;
8413;SDS011;4244;48.684;9.028;2022-10-31T07:31:24;7.83;;;6.30;;
8413;SDS011;4244;48.684;9.028;2022-10-31T07:33:50;7.70;;;5.90;;
8413;SDS011;4244;48.684;9.028;2022-10-31T07:36:15;7.63;;;5.33;;
8413;SDS011;4244;48.684;9.028;2022-10-31T07:38:41;6.90;;;5.10;;
8413;SDS011;4244;48.684;9.028;2022-10-31T07:41:07;7.70;;;6.33;;
8413;SDS011;4244;48.684;9.028;2022-10-31T07:43:33;9.27;;;6.03;;
8413;SDS011;4244;48.684;9.028;2022-10-31T07:45:58;8.10;;;6.30;;
8413;SDS011;4244;48.684;9.028;2022-10-31T07:48:24;7.00;;;6.13;;
8413;SDS011;4244;48.684;9.028;2022-10-31T07:50:50;10.50;;;7.27;;
8413;SDS011;4244;48.684;9.028;2022-10-31T07:53:16;5.97;;;5.37;;
8413;SDS011;4244;48.684;9.028;2022-10-31T07:55:42;6.10;;;5.03;;
8413;SDS011;4244;48.684;9.028;2022-10-31T07:58:12;6.83;;;6.20;;
8413;SDS011;4244;48.684;9.028;2022-10-31T08:00:41;9.40;;;6.80;;
8413;SDS011;4244;48.684;9.028;2022-10-31T08:03:08;7.50;;;5.83;;
8413;SDS011;4244;48.684;9.028;2022-10-31T08:05:35;6.20;;;5.60;;
8413;SDS011;4244;48.684;9.028;2022-10-31T08:08:02;6.20;;;5.07;;
8413;SDS011;4244;48.684;9.028;2022-10-31T08:10:28;6.23;;;5.63;;
8413;SDS011;4244;48.684;9.028;2022-10-31T08:12:54;6.50;;;5.73;;
8413;SDS011;4244;48.684;9.028;2022-10-31T08:15:21;6.23;;;5.73;;
8413;SDS011;4244;48.684;9.028;2022-10-31T08:17:47;6.60;;;6.00;;
8413;SDS011;4244;48.684;9.028;2022-10-31T08:20:13;9.73;;;7.10;;
8413;SDS011;4244;48.684;9.028;2022-10-31T08:22:38;7.20;;;6.40;;
8413;SDS011;4244;48.684;9.028;2022-10-31T08:25:04;6.77;;;6.17;;
8413;SDS011;4244;48.684;9.028;2022-10-31T08:27:30;8.23;;;7.40;;
8413;SDS011;4244;48.684;9.028;2022-10-31T08:29:55;7.97;;;7.17;;
8413;SDS011;4244;48.684;9.028;2022-10-31T08:32:21;7.33;;;6.20;;
8413;SDS011;4244;48.684;9.028;2022-10-31T08:34:47;8.70;;;6.87;;
8413;SDS011;4244;48.684;9.028;2022-10-31T08:37:12;8.13;;;6.50;;
8413;SDS011;4244;48.684;9.028;2022-10-31T08:39:43;7.57;;;6.67;;
8413;SDS011;4244;48.684;9.028;2022-10-31T08:42:09;10.57;;;6.33;;
8413;SDS011;4244;48.684;9.028;2022-10-31T08:44:34;8.07;;;7.27;;
8413;SDS011;4244;48.684;9.028;2022-10-31T08:47:00;6.93;;;6.30;;
8413;SDS011;4244;48.684;9.028;2022-10-31T08:49:26;7.87;;;6.23;;
8413;SDS011;4244;48.684;9.028;2022-10-31T08:51:51;7.47;;;6.70;;
8413;SDS011;4244;48.684;9.028;2022-10-31T08:54:17;6.67;;;5.97;;
8413;SDS011;4244;48.684;9.028;2022-10-31T08:56:43;6.90;;;6.20;;
8413;SDS011;4244;48.684;9.028;2022-10-31T08:59:09;8.43;;;6.23;;
8413;SDS011;4244;48.684;9.028;2022-10-31T09:01:34;8.50;;;6.30;;
8413;SDS011;4244;48.684;9.028;2022-10-31T09:04:00;6.73;;;5.30;;
8413;SDS011;4244;48.684;9.028;2022-10-31T09:06:25;6.77;;;5.17;;
8413;SDS011;4244;48.684;9.028;2022-10-31T09:08:51;6.20;;;5.60;;
8413;SDS011;4244;48.684;9.028;2022-10-31T09:11:16;6.50;;;5.90;;
8413;SDS011;4244;48.684;9.028;2022-10-31T09:13:42;7.27;;;5.73;;
8413;SDS011;4244;48.684;9.028;2022-10-31T09:16:08;5.90;;;5.10;;
8413;SDS011;4244;48.684;9.028;2022-10-31T09:18:33;7.27;;;5.23;;
8413;SDS011;4244;48.684;9.028;2022-10-31T09:20:59;9.57;;;6.13;;
8413;SDS011;4244;48.684;9.028;2022-10-31T09:23:25;7.13;;;5.07;;
8413;SDS011;4244;48.684;9.028;2022-10-31T09:25:51;8.07;;;5.50;;
8413;SDS011;4244;48.684;9.028;2022-10-31T09:28:21;6.13;;;5.30;;
8413;SDS011;4244;48.684;9.028;2022-10-31T09:30:48;5.40;;;4.90;;
8413;SDS011;4244;48.684;9.028;2022-10-31T09:33:15;7.60;;;5.53;;
8413;SDS011;4244;48.684;9.028;2022-10-31T09:35:41;5.50;;;4.30;;
8413;SDS011;4244;48.684;9.028;2022-10-31T09:38:17;5.43;;;4.70;;
8413;SDS011;4244;48.684;9.028;2022-10-31T09:40:45;8.47;;;5.53;;
8413;SDS011;4244;48.684;9.028;2022-10-31T09:46:07;7.13;;;4.47;;
8413;SDS011;4244;48.684;9.028;2022-10-31T09:51:24;6.80;;;4.90;;
8413;SDS011;4244;48.684;9.028;2022-10-31T09:53:54;5.27;;;4.57;;
8413;SDS011;4244;48.684;9.028;2022-10-31T09:56:42;8.17;;;5.07;;
8413;SDS011;4244;48.684;9.028;2022-10-31T09:59:23;8.10;;;4.90;;
8413;SDS011;4244;48.684;9.028;2022-10-31T10:01:59;6.93;;;5.00;;
8413;SDS011;4244;48.684;9.028;2022-10-31T10:04:34;8.30;;;4.93;;
8413;SDS011;4244;48.684;9.028;2022-10-31T10:07:07;8.10;;;5.13;;
8413;SDS011;4244;48.684;9.028;2022-10-31T10:09:45;9.37;;;4.97;;
8413;SDS011;4244;48.684;9.028;2022-10-31T10:12:20;4.90;;;4.40;;
8413;SDS011;4244;48.684;9.028;2022-10-31T10:18:16;5.60;;;5.10;;
8413;SDS011;4244;48.684;9.028;2022-10-31T10:26:30;6.17;;;5.13;;
8413;SDS011;4244;48.684;9.028;2022-10-31T10:29:02;13.20;;;5.80;;
8413;SDS011;4244;48.684;9.028;2022-10-31T10:31:47;7.10;;;4.90;;
8413;SDS011;4244;48.684;9.028;2022-10-31T10:37:15;6.13;;;5.30;;
8413;SDS011;4244;48.684;9.028;2022-10-31T10:39:47;7.23;;;5.47;;
8413;SDS011;4244;48.684;9.028;2022-10-31T10:42:15;8.17;;;5.67;;
8413;SDS011;4244;48.684;9.028;2022-10-31T10:45:00;7.60;;;5.87;;
8413;SDS011;4244;48.684;9.028;2022-10-31T10:48:35;5.23;;;4.70;;
8413;SDS011;4244;48.684;9.028;2022-10-31T10:51:20;7.30;;;4.83;;
8413;SDS011;4244;48.684;9.028;2022-10-31T10:59:06;4.57;;;4.07;;
8413;SDS011;4244;48.684;9.028;2022-10-31T11:01:37;5.50;;;4.60;;
8413;SDS011;4244;48.684;9.028;2022-10-31T11:04:07;5.93;;;4.47;;
8413;SDS011;4244;48.684;9.028;2022-10-31T11:06:41;12.90;;;4.70;;
8413;SDS011;4244;48.684;9.028;2022-10-31T11:09:09;5.93;;;4.30;;
8413;SDS011;4244;48.684;9.028;2022-10-31T11:11:35;5.83;;;4.60;;
8413;SDS011;4244;48.684;9.028;2022-10-31T11:14:05;4.67;;;4.17;;
8413;SDS011;4244;48.684;9.028;2022-10-31T11:16:38;7.93;;;4.57;;
8413;SDS011;4244;48.684;9.028;2022-10-31T11:19:13;6.80;;;5.07;;
8413;SDS011;4244;48.684;9.028;2022-10-31T11:21:44;7.50;;;5.33;;
8413;SDS011;4244;48.684;9.028;2022-10-31T11:26:40;6.20;;;4.30;;
8413;SDS011;4244;48.684;9.028;2022-10-31T11:29:19;6.33;;;4.10;;
8413;SDS011;4244;48.684;9.028;2022-10-31T11:31:47;7.00;;;5.17;;
8413;SDS011;4244;48.684;9.028;2022-10-31T11:34:18;6.03;;;4.70;;
8413;SDS011;4244;48.684;9.028;2022-10-31T11:36:45;10.80;;;5.60;;
8413;SDS011;4244;48.684;9.028;2022-10-31T11:39:16;5.40;;;4.37;;
8413;SDS011;4244;48.684;9.028;2022-10-31T11:41:44;6.53;;;5.03;;
8413;SDS011;4244;48.684;9.028;2022-10-31T11:44:21;5.60;;;4.27;;
8413;SDS011;4244;48.684;9.028;2022-10-31T11:46:52;5.70;;;4.50;;
8413;SDS011;4244;48.684;9.028;2022-10-31T11:49:36;7.27;;;4.77;;
8413;SDS011;4244;48.684;9.028;2022-10-31T11:52:17;5.63;;;5.03;;
8413;SDS011;4244;48.684;9.028;2022-10-31T11:54:54;10.13;;;5.03;;
8413;SDS011;4244;48.684;9.028;2022-10-31T11:59:57;8.70;;;4.70;;
8413;SDS011;4244;48.684;9.028;2022-10-31T12:02:25;6.07;;;4.90;;
8413;SDS011;4244;48.684;9.028;2022-10-31T12:05:08;8.20;;;5.10;;
8413;SDS011;4244;48.684;9.028;2022-10-31T12:07:43;7.90;;;4.33;;
8413;SDS011;4244;48.684;9.028;2022-10-31T12:10:11;7.17;;;4.53;;
8413;SDS011;4244;48.684;9.028;2022-10-31T12:29:12;6.90;;;4.90;;
8413;SDS011;4244;48.684;9.028;2022-10-31T12:34:40;7.27;;;6.00;;
8413;SDS011;4244;48.684;9.028;2022-10-31T12:43:29;7.07;;;5.67;;
8413;SDS011;4244;48.684;9.028;2022-10-31T12:46:04;7.70;;;5.07;;
8413;SDS011;4244;48.684;9.028;2022-10-31T12:54:27;6.37;;;5.77;;
8413;SDS011;4244;48.684;9.028;2022-10-31T12:59:38;8.37;;;6.47;;
8413;SDS011;4244;48.684;9.028;2022-10-31T13:05:16;9.90;;;6.97;;
8413;SDS011;4244;48.684;9.028;2022-10-31T13:13:31;9.00;;;6.83;;
8413;SDS011;4244;48.684;9.028;2022-10-31T13:16:02;8.17;;;7.40;;
8413;SDS011;4244;48.684;9.028;2022-10-31T13:18:38;7.40;;;6.70;;
8413;SDS011;4244;48.684;9.028;2022-10-31T13:21:08;7.97;;;7.17;;
8413;SDS011;4244;48.684;9.028;2022-10-31T13:23:37;9.83;;;7.00;;
8413;SDS011;4244;48.684;9.028;2022-10-31T13:26:14;9.50;;;8.33;;
8413;SDS011;4244;48.684;9.028;2022-10-31T13:28:57;9.33;;;7.60;;
8413;SDS011;4244;48.684;9.028;2022-10-31T13:31:34;7.33;;;6.60;;
8413;SDS011;4244;48.684;9.028;2022-10-31T13:34:02;7.83;;;7.10;;
8413;SDS011;4244;48.684;9.028;2022-10-31T13:42:02;7.70;;;6.03;;
8413;SDS011;4244;48.684;9.028;2022-10-31T13:44:49;7.13;;;5.90;;
8413;SDS011;4244;48.684;9.028;2022-10-31T13:47:28;6.10;;;5.50;;
8413;SDS011;4244;48.684;9.028;2022-10-31T13:50:55;6.17;;;5.53;;
8413;SDS011;4244;48.684;9.028;2022-10-31T13:52:50;8.30;;;4.90;;
8413;SDS011;4244;48.684;9.028;2022-10-31T13:58:17;7.60;;;5.83;;
8413;SDS011;4244;48.684;9.028;2022-10-31T14:00:58;9.70;;;6.00;;
8413;SDS011;4244;48.684;9.028;2022-10-31T14:03:30;6.00;;;5.40;;
8413;SDS011;4244;48.684;9.028;2022-10-31T14:05:56;6.83;;;5.77;;
8413;SDS011;4244;48.684;9.028;2022-10-31T14:08:22;6.47;;;5.77;;
8413;SDS011;4244;48.684;9.028;2022-10-31T14:10:49;7.30;;;5.73;;
8413;SDS011;4244;48.684;9.028;2022-10-31T14:16:17;7.70;;;5.97;;
8413;SDS011;4244;48.684;9.028;2022-10-31T14:18:50;8.50;;;5.90;;
8413;SDS011;4244;48.684;9.028;2022-10-31T14:21:37;6.80;;;6.10;;
8413;SDS011;4244;48.684;9.028;2022-10-31T14:32:46;10.10;;;5.37;;
8413;SDS011;4244;48.684;9.028;2022-10-31T14:47:46;6.80;;;6.10;;
8413;SDS011;4244;48.684;9.028;2022-10-31T14:50:54;6.73;;;6.00;;
8413;SDS011;4244;48.684;9.028;2022-10-31T14:53:35;7.00;;;6.20;;
8413;SDS011;4244;48.684;9.028;2022-10-31T14:56:08;9.00;;;6.30;;
8413;SDS011;4244;48.684;9.028;2022-10-31T14:58:38;10.20;;;6.13;;
8413;SDS011;4244;48.684;9.028;2022-10-31T15:01:07;7.60;;;6.27;;
8413;SDS011;4244;48.684;9.028;2022-10-31T15:03:42;7.70;;;6.40;;
8413;SDS011;4244;48.684;9.028;2022-10-31T15:06:14;9.30;;;6.33;;
8413;SDS011;4244;48.684;9.028;2022-10-31T15:08:49;6.80;;;6.03;;
8413;SDS011;4244;48.684;9.028;2022-10-31T15:11:17;6.67;;;5.97;;
8413;SDS011;4244;48.684;9.028;2022-10-31T15:13:43;7.70;;;7.00;;
8413;SDS011;4244;48.684;9.028;2022-10-31T15:16:14;11.17;;;8.30;;
8413;SDS011;4244;48.684;9.028;2022-10-31T15:18:58;12.43;;;8.43;;
8413;SDS011;4244;48.684;9.028;2022-10-31T15:21:33;10.53;;;9.00;;
8413;SDS011;4244;48.684;9.028;2022-10-31T15:24:19;9.90;;;8.47;;
8413;SDS011;4244;48.684;9.028;2022-10-31T15:26:49;8.37;;;7.53;;
8413;SDS011;4244;48.684;9.028;2022-10-31T15:29:18;9.80;;;8.50;;
8413;SDS011;4244;48.684;9.028;2022-10-31T15:36:58;9.43;;;6.40;;
8413;SDS011;4244;48.684;9.028;2022-10-31T15:39:24;9.07;;;6.73;;
8413;SDS011;4244;48.684;9.028;2022-10-31T15:41:56;11.37;;;7.00;;
8413;SDS011;4244;48.684;9.028;2022-10-31T15:47:15;10.20;;;6.87;;
8413;SDS011;4244;48.684;9.028;2022-10-31T15:49:43;10.90;;;7.10;;
8413;SDS011;4244;48.684;9.028;2022-10-31T15:54:48;7.07;;;5.87;;
8413;SDS011;4244;48.684;9.028;2022-10-31T15:57:15;8.80;;;5.60;;
8413;SDS011;4244;48.684;9.028;2022-10-31T15:59:42;10.23;;;5.40;;
8413;SDS011;4244;48.684;9.028;2022-10-31T16:02:11;10.30;;;6.50;;
8413;SDS011;4244;48.684;9.028;2022-10-31T16:04:58;6.83;;;6.10;;
8413;SDS011;4244;48.684;9.028;2022-10-31T16:07:26;6.80;;;5.30;;
8413;SDS011;4244;48.684;9.028;2022-10-31T16:09:59;7.90;;;5.77;;
8413;SDS011;4244;48.684;9.028;2022-10-31T16:12:36;10.10;;;7.00;;
8413;SDS011;4244;48.684;9.028;2022-10-31T16:15:03;10.80;;;6.73;;
8413;SDS011;4244;48.684;9.028;2022-10-31T16:17:30;11.17;;;6.73;;
8413;SDS011;4244;48.684;9.028;2022-10-31T16:20:03;13.00;;;7.63;;
8413;SDS011;4244;48.684;9.028;2022-10-31T16:22:32;14.17;;;6.90;;
8413;SDS011;4244;48.684;9.028;2022-10-31T16:25:09;15.60;;;6.60;;
8413;SDS011;4244;48.684;9.028;2022-10-31T16:27:38;15.10;;;7.90;;
8413;SDS011;4244;48.684;9.028;2022-10-31T16:33:03;14.77;;;7.20;;
8413;SDS011;4244;48.684;9.028;2022-10-31T16:35:34;15.50;;;6.60;;
8413;SDS011;4244;48.684;9.028;2022-10-31T16:38:02;14.67;;;7.70;;
8413;SDS011;4244;48.684;9.028;2022-10-31T16:40:28;13.90;;;6.80;;
8413;SDS011;4244;48.684;9.028;2022-10-31T16:42:56;13.20;;;6.20;;
8413;SDS011;4244;48.684;9.028;2022-10-31T16:45:23;10.43;;;6.70;;
8413;SDS011;4244;48.684;9.028;2022-10-31T16:47:53;9.50;;;7.80;;
8413;SDS011;4244;48.684;9.028;2022-10-31T16:50:25;11.07;;;8.00;;
8413;SDS011;4244;48.684;9.028;2022-10-31T16:52:52;9.23;;;7.77;;
8413;SDS011;4244;48.684;9.028;2022-10-31T16:55:18;10.37;;;8.93;;
8413;SDS011;4244;48.684;9.028;2022-10-31T16:57:46;14.00;;;11.77;;
8413;SDS011;4244;48.684;9.028;2022-10-31T17:00:17;13.23;;;12.03;;
8413;SDS011;4244;48.684;9.028;2022-10-31T17:02:45;13.57;;;12.30;;
8413;SDS011;4244;48.684;9.028;2022-10-31T17:05:12;13.90;;;12.40;;
8413;SDS011;4244;48.684;9.028;2022-10-31T17:07:38;14.17;;;12.60;;
8413;SDS011;4244;48.684;9.028;2022-10-31T17:10:04;14.77;;;12.83;;
8413;SDS011;4244;48.684;9.028;2022-10-31T17:12:30;13.80;;;12.00;;
8413;SDS011;4244;48.684;9.028;2022-10-31T17:14:56;14.97;;;12.70;;
8413;SDS011;4244;48.684;9.028;2022-10-31T17:17:22;12.60;;;10.83;;
8413;SDS011;4244;48.684;9.028;2022-10-31T17:19:47;13.70;;;11.07;;
8413;SDS011;4244;48.684;9.028;2022-10-31T17:22:13;14.00;;;10.00;;
8413;SDS011;4244;48.684;9.028;2022-10-31T17:24:39;10.53;;;9.30;;
8413;SDS011;4244;48.684;9.028;2022-10-31T17:27:05;10.20;;;8.50;;
8413;SDS011;4244;48.684;9.028;2022-10-31T17:29:30;12.33;;;9.40;;
8413;SDS011;4244;48.684;9.028;2022-10-31T17:31:56;10.93;;;9.63;;
8413;SDS011;4244;48.684;9.028;2022-10-31T17:34:23;10.37;;;8.20;;
8413;SDS011;4244;48.684;9.028;2022-10-31T17:36:49;10.53;;;9.03;;
8413;SDS011;4244;48.684;9.028;2022-10-31T17:39:15;10.50;;;8.30;;
8413;SDS011;4244;48.684;9.028;2022-10-31T17:41:41;12.23;;;8.20;;
8413;SDS011;4244;48.684;9.028;2022-10-31T17:44:09;13.50;;;10.47;;
8413;SDS011;4244;48.684;9.028;2022-10-31T17:46:35;29.30;;;23.43;;
8413;SDS011;4244;48.684;9.028;2022-10-31T17:49:01;34.87;;;29.03;;
8413;SDS011;4244;48.684;9.028;2022-10-31T17:51:28;38.67;;;30.10;;
8413;SDS011;4244;48.684;9.028;2022-10-31T17:53:54;36.40;;;30.77;;